Adamsville, Ohio
Current Conditions -  °F | °C
As of 10:53 AM on Sunday 23 Nov 2014 (Local Time) from KZZV Reporting Station
Few Clouds Few Clouds  
Wind Chill: 55°   Ceiling: Unl
Heat Index: 55°   Visibility: 10mi
Dew Point: 32°   Wind: 10mph
Humidity: 42%   Direction: 160°SSE
Pressure: 30.01"   Gusts: NA
Location:  40.07°N, 81.88°W
Report Text: KZZV 231553Z AUTO 16009KT 10SM FEW110 13/00 A3001 RMK AO2 SLP162 T01280000
Loading
Personal Weather Stations






























Interactive Weather Map New forecast layout! Learn more

10-Day Weather Forecast

Advertisements
Track Severe Weather on mobile